aviador You're here:

KPHP Decoded Metar

PHILIP in SD, USA
Report Time2017-03-23 23:55:00
UTC Time2017-03-24 00:07:43
Flight Rules vfr VFR
Wind360° at 15 Gusting to 24 kt
W.Decomp.*RWY 30: 9.8 kt HW 11.3 kt RCW
RWY 05: 7.3 kt HW 13.1 kt LCW
Visibility9999 m
Phenomena:N/A
Clouds:Few 100 Hf
Scattered 110 Hf
Expected CloudBase > 3,600 ft AGL from Temp-Dew spread
CeilingNone
Temp13°C (ISA +2)
Dew Point04°C (55% RH)
AAT6.3°C
QNH1006 hPa
Density Alt2,841 ft
Elevation2,205 ft
Report Wrong Elevation
Raw Report
METAR KPHP 232355Z AUTO 36015G24KT 10SM FEW100 SCT110 13/04 A2970 RMK
AO2 PK WND 35027/2301 SLP057 T01280044 10194 20128 53037=

Extra information for KPHP:More info

Metar Taf Metar & Taf Last 4 Metars F.Rules Stats Wind Profile Meteogram Temp Stats Airport Information Weather charts Add Link Nearby VenuesMetar ALERT Operation Metar Decoded Social comments

AIRNAV info for KPHP